Hinkley, CA (92347)

9:56 PM PDT on September 30, 2014 (GMT -0700)
Silver Lakes / Helendale | Change Station
CLOSE
Current Station
Personal Weather Station
Location: Helendale, CA
Elevation: 2438 ft
Nearby Weather Stations

Elev 2438 ft 34.76 °N, 117.33 °W | Updated 10 minutes ago

Clear
Clear
71.7 °F
Feels Like 77 °F
N
1.0
Wind Variable Wind from SW
Gusts 3.0 mph

Today
High -- | Low -- °F
--% Chance of Precip.
Yesterday
High -- | Low -- °F
Precip. -- in
6:42 AM 6:34 PM
Waxing Crescent, 43% visible
Pressure 29.71 in
Visibility 10.0 miles
Clouds Clear
Heat Index 77 °F
Dew Point 44 °F
Humidity 37%
Rainfall 0.00 in
Snow Depth 0 in , 0 in , 1 in
UV 0 out of 12
Pollen 5.30 out of 12
Ozone Good
Flu Activity Not available.
METAR KDAG 010350Z AUTO 26007KT 10SM CLR 27/03 A2977 RMK AO2 SLP059 T02670028 TSNO

More Conditions Fewer Conditions

Pressure 29.71 in
Visibility 10.0 miles
Clouds Clear
Heat Index 77 °F
Dew Point 44 °F
Humidity 37%
Rainfall 0.00 in
Snow Depth 0 in , 0 in , 1 in
UV 0 out of 12
Pollen 5.30 out of 12
Ozone Good
Flu Activity Not available.
METAR KDAG 010350Z AUTO 26007KT 10SM CLR 27/03 A2977 RMK AO2 SLP059 T02670028 TSNO

More Conditions Fewer Conditions

10-Day Weather Forecast

Almanac

Astronomy

Sep. 30, 2014 Rise Set
Actual Time 6:42 AM PDT 6:34 PM PDT
Civil Twilight 6:17 AM PDT 6:59 PM PDT
Nautical Twilight 5:48 AM PDT 7:28 PM PDT
Astronomical Twilight 5:18 AM PDT 7:57 PM PDT
Moon 12:44 PM PDT (9/30) 11:18 PM PDT (9/30)
Length of Visible Light 12h 41m
Length of Day
11h 51m
Tomorrow will be 2m 10s shorter.
Waxing Crescent, 43% of the Moon is Illuminated
Oct 1
Waxing Crescent
Oct 1
First Quarter
Oct 8
Full
Oct 15
Last Quarter
Oct 23
New

Yesterday's Extremes

State Highs State Lows

Community

WunderPhotos

Upload Photos

1,757,847 photos uploaded!

Nearby

Air Quality

  Air Quality AQ Index Pollutant
Yesterday Good
OZONE
Yesterday Good
PM10
Current Good
OZONE
Wednesday Good
PM10
Wednesday Good
OZONE
Wednesday Good
CO
Wednesday Good
NO2

Snow Depth

Station Depth Elevation
Independence Camp 0 in 7000 ft
Rubicon #2 0 in 7500 ft
Burnside Lake 1 in 8139 ft
Echo Peak 0 in 7800 ft
Leavitt Meadows 1 in 7200 ft

Earthquake Activity

City Distance Mag. Time & Date
Avalon, California 144 miles 2.6 1:28 PM PDT
2014-09-30
Minimum magnitude displayed is 2.5.

Coastal Water Temperatures

Place Temperature
No Stations Reporting

Nearby Weather Stations